Latest Coastal Weather Observations for Merimbula

IDN60701

Issued at 12:31 pm EST Monday 1 June 2020 (issued every 10 minutes, with the page automatically refreshed every 10 minutes)

About coastal observations | Map of coastal stations | Coastal observations for NSW | Marine services | Other Formats
Station Details ID: 069147 Name: MERIMBULA AIRPORT AWS Lat: -36.91 Lon: 149.90 Height: 1.5 m
Data from the previous 72 hours. | See also: Recent months at Merimbula
Date/Time
EST
Wind Sea
Height
m
Swell Vis
km
Cloud Weather Temp
°C
Press
hPa
Rain since
9am
mm
Dir  Spd
kts
Gust
kts
Height
m
Period
s
Dir
01/12:30pm CALM 0 0 - - - - 10 Clear - 16.4 1004.0 0.0
01/12:00pm CALM 0 0 - - - - 10 Mostly cloudy - 16.2 1004.1 0.0
01/11:30am CALM 0 0 - - - - 10 - - 16.5 1004.5 0.0
01/11:00am CALM 0 3 - - - - 10 - - 15.8 1005.1 0.0
01/10:30am N 5 8 - - - - 10 - - 15.8 1005.1 0.0
01/10:00am NNW 4 7 - - - - 10 - - 15.2 1005.4 0.0
01/09:30am NNW 7 9 - - - - 10 - - 15.2 1005.7 0.0
01/09:00am NW 6 8 - - - - 10 Mostly clear - 15.9 1006.0 0.0
01/08:30am NW 7 11 - - - - 10 - - 14.3 1006.0 0.0
01/08:00am NNW 7 13 - - - - 10 Partly cloudy - 13.5 1006.1 0.0
01/07:30am WNW 6 8 - - - - 10 Partly cloudy - 12.4 1006.3 0.0
01/07:00am NW 7 10 - - - - 10 Partly cloudy - 12.3 1006.1 0.0
01/06:30am NW 6 9 - - - - 10 Partly cloudy - 11.9 1006.3 0.0
01/06:00am NNW 5 8 - - - - 10 Mostly clear - 11.0 1006.3 0.0
01/05:30am NNW 5 6 - - - - 10 Partly cloudy - 11.2 1006.3 0.0
01/05:00am NNW 5 6 - - - - 10 - - 12.5 1006.4 0.0
01/04:30am NW 8 11 - - - - 10 - - 12.8 1006.6 0.0
01/04:00am NW 6 9 - - - - 10 - - 13.1 1006.6 0.0
01/03:30am N 7 11 - - - - 10 Partly cloudy - 15.2 1006.7 0.0
01/03:00am W 3 9 - - - - 10 Cloudy - 12.8 1007.5 0.0
01/02:30am NNW 6 11 - - - - 10 Partly cloudy - 13.4 1007.7 0.0
01/02:00am NW 5 7 - - - - 10 Partly cloudy - 12.7 1008.1 0.0
01/01:30am W 3 5 - - - - 10 Partly cloudy - 12.1 1008.5 0.0
01/01:00am NNW 5 7 - - - - 10 - - 12.0 1008.8 0.0
01/12:30am CALM 0 3 - - - - 10 Partly cloudy - 11.4 1009.2 0.0
01/12:00am WSW 3 5 - - - - 10 Cloudy - 11.9 1009.7 0.0
 
Date/Time
EST
Wind Sea
Height
m
Swell Vis
km
Cloud Weather Temp
°C
Press
hPa
Rain since
9am
mm
Dir  Spd
kts
Gust
kts
Height
m
Period
s
Dir
31/11:30pm SW 3 6 - - - - 10 Partly cloudy - 12.1 1010.1 0.0
31/11:00pm NW 1 5 - - - - 10 Cloudy - 12.7 1010.4 0.0
31/10:30pm NNW 5 7 - - - - 10 - - 12.8 1010.5 0.0
31/10:00pm NNW 5 7 - - - - 10 - - 12.8 1010.7 0.0
31/09:30pm NNW 6 7 - - - - 10 - - 13.1 1011.0 0.0
31/09:00pm NNW 5 7 - - - - 10 Cloudy - 13.3 1011.1 0.0
31/08:30pm NNW 5 8 - - - - 10 - - 13.7 1011.3 0.0
31/08:00pm NW 5 6 - - - - 10 - - 14.0 1011.5 0.0
31/07:30pm NW 6 8 - - - - 10 Partly cloudy - 14.9 1011.5 0.0
31/07:00pm NNW 5 7 - - - - 10 Cloudy - 15.2 1011.6 0.0
31/06:30pm NNW 5 8 - - - - 10 Partly cloudy - 15.8 1011.8 0.0
31/06:00pm WNW 4 6 - - - - 10 Mostly cloudy - 15.5 1011.6 0.0
31/05:30pm NNW 5 6 - - - - 10 Cloudy - 17.2 1011.5 0.0
31/05:00pm NW 7 9 - - - - 10 Partly cloudy - 17.6 1011.4 0.0
31/04:30pm NW 6 8 - - - - 10 Partly cloudy - 18.1 1011.3 0.0
31/04:00pm NNW 4 8 - - - - 10 Partly cloudy - 18.7 1011.3 0.0
31/03:30pm NW 9 13 - - - - 10 - - 20.0 1011.2 0.0
31/03:00pm NNW 7 11 - - - - 10 Cloudy - 20.8 1011.2 0.0
31/02:30pm NNW 7 14 - - - - 10 - - 20.0 1011.3 0.0
31/02:00pm NNW 8 11 - - - - 10 - - 20.3 1011.5 0.0
31/01:30pm NNW 7 11 - - - - 10 - - 20.5 1011.7 0.0
31/01:00pm NNW 8 15 - - - - 10 - - 21.1 1011.8 0.0
31/12:30pm NNW 8 13 - - - - 10 - - 20.8 1012.1 0.0
31/12:00pm NW 8 13 - - - - 10 - - 21.7 1012.7 0.0
31/11:30am NW 8 15 - - - - 10 - - 21.2 1013.4 0.0
31/11:00am NNW 8 13 - - - - 10 - - 21.0 1013.8 0.0
31/10:30am NNW 9 14 - - - - 10 - - 20.0 1014.3 0.0
31/10:00am NW 8 10 - - - - 10 - - 18.7 1014.6 0.0
31/09:30am NW 9 12 - - - - 10 - - 17.6 1014.8 0.0
31/09:00am NW 10 15 - - - - 10 - - 15.7 1014.7 0.0
31/08:56am WNW 9 12 - - - - 10 - - 15.4 1014.9 0.0
31/08:30am SSW 5 6 - - - - 10 - - 10.4 1015.2 0.0
31/08:00am WSW 2 6 - - - - 10 - - 9.6 1015.2 0.0
31/07:30am SSW 5 8 - - - - 10 Partly cloudy - 9.8 1015.3 0.0
31/07:00am SSW 5 7 - - - - 10 Cloudy - 9.9 1015.3 0.0
31/06:30am SSW 5 9 - - - - 10 Cloudy - 9.7 1015.1 0.0
31/06:00am SSW 3 6 - - - - 10 Cloudy - 9.4 1014.9 0.0
31/05:30am SSW 5 7 - - - - 10 - - 9.2 1014.9 0.0
31/05:00am SSW 4 7 - - - - 10 - - 9.1 1014.7 0.0
31/04:30am SW 5 8 - - - - 10 - - 9.0 1014.8 0.0
31/04:00am SSW 3 5 - - - - 10 - - 8.8 1015.1 0.0
31/03:30am NNE 1 4 - - - - 10 Partly cloudy - 9.3 1015.3 0.0
31/03:00am NW 3 5 - - - - 10 Mostly cloudy - 9.2 1015.7 0.0
31/02:30am CALM 0 3 - - - - 10 - - 9.3 1016.1 0.0
31/02:00am SSW 5 7 - - - - 10 - - 9.9 1016.2 0.0
31/01:30am NW 2 4 - - - - 10 - - 12.0 1016.3 0.0
31/01:00am WNW 4 7 - - - - 10 - - 13.9 1016.4 0.0
31/12:30am N 8 14 - - - - 10 - - 16.1 1016.0 0.0
31/12:00am N 10 17 - - - - 10 - - 16.5 1016.0 0.0
 
Date/Time
EST
Wind Sea
Height
m
Swell Vis
km
Cloud Weather Temp
°C
Press
hPa
Rain since
9am
mm
Dir  Spd
kts
Gust
kts
Height
m
Period
s
Dir
30/11:30pm N 7 13 - - - - 10 - - 16.1 1016.3 0.0
30/11:00pm NNE 6 13 - - - - 10 - - 15.7 1016.7 0.0
30/10:30pm NNE 7 11 - - - - 10 - - 15.9 1016.8 0.0
30/10:00pm NNE 8 14 - - - - 10 - - 16.3 1017.1 0.0
30/09:30pm N 7 11 - - - - 10 - - 15.7 1017.2 0.0
30/09:00pm N 7 12 - - - - 10 - - 15.1 1017.0 0.0
30/08:30pm WNW 1 4 - - - - 10 - - 10.7 1017.5 0.0
30/08:00pm WNW 3 6 - - - - 10 - - 11.2 1018.2 0.0
30/07:30pm SW 3 5 - - - - 10 - - 12.5 1018.5 0.0
30/07:00pm N 6 10 - - - - 8 - - 15.8 1018.8 0.0
30/06:30pm N 7 11 - - - - 10 - - 15.5 1019.0 0.0
30/06:00pm WNW 1 3 - - - - 10 - - 14.2 1019.5 0.0
30/05:30pm N 7 12 - - - - 10 - - 16.2 1019.4 0.0
30/05:00pm NNE 6 12 - - - - 10 - - 16.5 1019.5 0.0
30/04:30pm NNE 2 9 - - - - 10 - - 16.8 1019.4 0.0
30/04:00pm NNE 4 8 - - - - 10 - - 17.9 1019.6 0.0
30/03:30pm NNE 5 8 - - - - 10 - - 17.8 1019.7 0.0
30/03:00pm NE 6 9 - - - - 10 - - 17.6 1020.1 0.0
30/02:30pm ENE 6 9 - - - - 10 Partly cloudy - 17.0 1020.6 0.0
30/02:00pm E 5 8 - - - - 10 Cloudy - 17.3 1021.0 0.0
30/01:30pm E 5 8 - - - - 10 Partly cloudy - 16.7 1021.6 0.0
30/01:00pm E 5 8 - - - - 10 Partly cloudy - 16.1 1021.9 0.0
30/12:30pm E 6 8 - - - - 10 Partly cloudy - 16.0 1022.4 0.0
30/12:00pm E 5 7 - - - - 10 - - 16.3 1023.0 0.0
30/11:30am ESE 5 8 - - - - 10 - - 15.7 1023.8 0.0
30/11:00am ESE 4 6 - - - - 10 - - 15.4 1024.5 0.0
30/10:30am CALM 0 0 - - - - 10 - - 14.9 1025.0 0.0
30/10:00am CALM 0 0 - - - - 10 - - 13.2 1025.4 0.0
30/09:30am CALM 0 0 - - - - 10 - - 10.7 1025.7 0.0
30/09:00am CALM 0 0 - - - - 10 - - 9.0 1025.6 0.0
30/08:30am CALM 0 0 - - - - 10 - - 7.8 1025.8 0.0
30/08:00am CALM 0 0 - - - - 10 - - 6.0 1025.6 0.0
30/07:30am CALM 0 0 - - - - 10 - - 4.9 1025.6 0.0
30/07:00am CALM 0 0 - - - - 10 - - 5.0 1025.7 0.0
30/06:30am CALM 0 0 - - - - 10 - - 5.1 1025.3 0.0
30/06:00am CALM 0 0 - - - - 10 - - 5.3 1025.3 0.0
30/05:30am CALM 0 0 - - - - 9 - - 5.2 1025.1 0.0
30/05:00am CALM 0 0 - - - - 10 - - 5.3 1025.1 0.0
30/04:30am CALM 0 0 - - - - 10 - - 5.5 1025.2 0.0
30/04:00am CALM 0 0 - - - - 10 - - 5.9 1025.4 0.0
30/03:30am CALM 0 0 - - - - 10 - - 6.2 1025.6 0.0
30/03:00am CALM 0 0 - - - - 10 - - 6.1 1025.9 0.0
30/02:30am CALM 0 0 - - - - 10 - - 6.3 1026.1 0.0
30/02:00am CALM 0 0 - - - - 10 - - 6.4 1026.2 0.0
30/01:30am CALM 0 0 - - - - 10 - - 6.7 1026.4 0.0
30/01:00am CALM 0 0 - - - - 10 - - 6.8 1026.5 0.0
30/12:30am CALM 0 0 - - - - 10 - - 7.1 1026.6 0.0
30/12:00am CALM 0 0 - - - - 10 - - 7.7 1026.7 0.0
 
Date/Time
EST
Wind Sea
Height
m
Swell Vis
km
Cloud Weather Temp
°C
Press
hPa
Rain since
9am
mm
Dir  Spd
kts
Gust
kts
Height
m
Period
s
Dir
29/11:30pm CALM 0 0 - - - - 10 Partly cloudy - 8.4 1026.9 0.0
29/11:00pm CALM 0 0 - - - - 10 Cloudy - 8.9 1027.1 0.0
29/10:30pm CALM 0 0 - - - - 10 Cloudy - 8.8 1027.3 0.0
29/10:00pm CALM 0 0 - - - - 10 Cloudy - 9.2 1027.6 0.0
29/09:30pm SW 2 4 - - - - 10 Cloudy - 8.9 1027.9 0.0
29/09:00pm CALM 0 0 - - - - 10 Mostly cloudy - 7.9 1027.9 0.0
29/08:30pm SW 3 4 - - - - 10 Partly cloudy - 7.8 1028.2 0.0
29/08:00pm SW 3 4 - - - - 10 - - 7.9 1028.1 0.0
29/07:30pm WSW 3 4 - - - - 10 - - 8.6 1027.9 0.0
29/07:00pm WNW 4 5 - - - - 10 - - 9.3 1027.8 0.0
29/06:30pm WSW 2 4 - - - - 10 - - 9.8 1027.6 0.0
29/06:00pm NNW 4 5 - - - - 10 - - 11.2 1027.5 0.0
29/05:30pm CALM 0 0 - - - - 10 - - 11.5 1027.4 0.0
29/05:00pm ENE 1 4 - - - - 10 - - 13.3 1027.1 0.0
29/04:30pm E 3 6 - - - - 10 - - 15.1 1026.8 0.0
29/04:00pm NE 4 7 - - - - 10 - - 16.5 1026.5 0.0
29/03:30pm ENE 6 8 - - - - 10 - - 17.1 1026.1 0.0
29/03:00pm ENE 6 8 - - - - 10 - - 17.4 1026.1 0.0
29/02:30pm ENE 7 10 - - - - 10 - - 17.6 1026.2 0.0
29/02:00pm ENE 6 9 - - - - 10 - - 17.8 1026.1 0.0
29/01:30pm ENE 6 9 - - - - 10 - - 17.9 1026.4 0.0
29/01:00pm ENE 6 8 - - - - 10 - - 18.5 1026.4 0.0

Other formats

Comma delimited format used in spreadsheet applications
http://www.bom.gov.au/fwo/IDN60701/IDN60701.95929.axf

JavaScript Object Notation format (JSON) in row-major order
http://www.bom.gov.au/fwo/IDN60701/IDN60701.95929.json

Data quality

Most of these data are generated automatically and are frequently updated. Quality checks on data are not normally performed. It is possible for incorrect values to appear. Refer to information at About Latest Weather Observations and please check the disclaimer before using these data.